Time;durP1;ratioP1;P1;durP2;ratioP2;P2;SDS_P1;SDS_P2;PMS_P1;PMS_P2;Temp;Humidity;BMP_temperature;BMP_pressure;BME280_temperature;BME280_humidity;BME280_pressure;Samples;Min_cycle;Max_cycle;Signal;HPM_P1;HPM_P2
2022/09/24 00:01:38;;;;;;;12.93;7.93;;;15.50;99.90;;;;;;5000493;28;20398;-82
2022/09/24 00:04:06;;;;;;;17.00;8.95;;;15.40;99.90;;;;;;5003935;28;20034;-82
2022/09/24 00:06:36;;;;;;;12.50;7.68;;;15.50;99.90;;;;;;4990313;28;20793;-82
2022/09/24 00:09:04;;;;;;;14.68;8.13;;;15.40;99.90;;;;;;4991192;28;20157;-82
2022/09/24 00:11:31;;;;;;;12.85;8.20;;;15.50;99.90;;;;;;4992221;28;20125;-82
2022/09/24 00:13:59;;;;;;;13.68;8.20;;;15.40;99.90;;;;;;5003994;28;20073;-82
2022/09/24 00:16:32;;;;;;;14.48;8.38;;;15.50;99.90;;;;;;4990647;28;20050;-82
2022/09/24 00:19:00;;;;;;;14.10;8.35;;;15.50;99.90;;;;;;5000236;28;20058;-81
2022/09/24 00:21:28;;;;;;;14.05;8.48;;;15.40;99.90;;;;;;4999554;28;20042;-82
2022/09/24 00:23:57;;;;;;;13.00;7.82;;;15.50;99.90;;;;;;5004072;28;20084;-82
2022/09/24 00:29:11;;;;;;;19.02;9.07;;;15.50;99.90;;;;;;4991094;28;20406;-82
2022/09/24 00:31:39;;;;;;;17.05;8.82;;;15.50;99.90;;;;;;4999970;28;20050;-82
2022/09/24 00:34:06;;;;;;;15.30;9.20;;;15.50;99.90;;;;;;4978261;28;20053;-82
2022/09/24 00:36:33;;;;;;;14.27;9.55;;;15.50;99.90;;;;;;4998872;28;20038;-82
2022/09/24 00:39:01;;;;;;;16.33;8.75;;;15.50;99.90;;;;;;4996296;28;20042;-82
2022/09/24 00:41:29;;;;;;;15.73;9.35;;;15.50;99.90;;;;;;4998982;28;20088;-82
2022/09/24 00:43:57;;;;;;;16.67;9.40;;;15.50;99.90;;;;;;4997042;28;20043;-82
2022/09/24 00:46:26;;;;;;;17.38;9.23;;;15.50;99.90;;;;;;4994205;28;20589;-82
2022/09/24 00:48:57;;;;;;;15.82;8.20;;;15.50;99.90;;;;;;4994487;28;20054;-82
2022/09/24 00:51:25;;;;;;;12.73;8.10;;;15.50;99.90;;;;;;4981166;28;20058;-82
2022/09/24 00:53:55;;;;;;;15.75;8.40;;;15.70;99.90;;;;;;5003314;28;20811;-82
2022/09/24 00:56:23;;;;;;;12.20;7.28;;;15.50;99.90;;;;;;5010119;28;20060;-82
2022/09/24 00:58:52;;;;;;;12.68;7.60;;;15.50;99.90;;;;;;4993144;28;20046;-82
2022/09/24 01:01:21;;;;;;;14.82;7.80;;;15.50;99.90;;;;;;4998487;28;20050;-82
2022/09/24 01:03:49;;;;;;;12.05;8.15;;;15.40;99.90;;;;;;4992700;28;20042;-82
2022/09/24 01:06:17;;;;;;;13.75;8.38;;;15.50;99.90;;;;;;4989917;28;20038;-82
2022/09/24 01:08:44;;;;;;;14.85;8.80;;;15.50;99.90;;;;;;4998780;28;20057;-82
2022/09/24 01:11:36;;;;;;;21.85;9.68;;;15.70;99.90;;;;;;5000963;28;20146;-82
2022/09/24 01:14:25;;;;;;;21.98;10.55;;;15.50;99.90;;;;;;4999790;28;20052;-82
2022/09/24 01:16:56;;;;;;;16.42;9.43;;;15.50;99.90;;;;;;4988346;28;20080;-82
2022/09/24 01:19:51;;;;;;;20.35;9.77;;;15.50;99.90;;;;;;4981094;28;20061;-82
2022/09/24 01:22:30;;;;;;;21.92;9.90;;;15.50;99.90;;;;;;5001432;28;20052;-82
2022/09/24 01:25:01;;;;;;;14.73;9.18;;;15.50;99.90;;;;;;4995638;28;20048;-82
2022/09/24 01:27:32;;;;;;;;;;;15.40;99.90;;;;;;4991191;28;20389;-82
2022/09/24 01:30:05;;;;;;;16.75;10.05;;;15.40;99.90;;;;;;4990099;28;19926;-82
2022/09/24 01:32:37;;;;;;;16.88;11.07;;;15.40;99.90;;;;;;5001860;28;20045;-82
2022/09/24 01:35:08;;;;;;;17.60;10.68;;;15.50;99.90;;;;;;4994037;28;20124;-81
2022/09/24 01:37:35;;;;;;;;;;;15.40;99.90;;;;;;4991046;28;20054;-82
2022/09/24 01:40:03;;;;;;;16.55;11.73;;;15.50;99.90;;;;;;4990497;28;20383;-82
2022/09/24 01:42:31;;;;;;;19.88;11.95;;;15.40;99.90;;;;;;4984146;28;20438;-82
2022/09/24 01:44:58;;;;;;;17.63;12.15;;;15.40;99.90;;;;;;4994312;28;20487;-82
2022/09/24 01:47:31;;;;;;;18.55;12.07;;;15.40;99.90;;;;;;4990372;28;20074;-82
2022/09/24 01:49:58;;;;;;;19.65;11.25;;;15.40;99.90;;;;;;4989594;28;20050;-82
2022/09/24 01:52:29;;;;;;;17.90;10.35;;;15.40;99.90;;;;;;5001131;28;20060;-82
2022/09/24 01:54:57;;;;;;;14.48;10.23;;;15.40;99.90;;;;;;4994763;28;20403;-82
2022/09/24 01:57:25;;;;;;;15.50;9.82;;;15.40;99.90;;;;;;4989637;28;20053;-82
2022/09/24 01:59:55;;;;;;;16.08;10.23;;;15.40;99.90;;;;;;4989024;28;20057;-82
2022/09/24 02:02:26;;;;;;;19.60;10.35;;;15.40;99.90;;;;;;4984052;28;20046;-82
2022/09/24 02:04:59;;;;;;;17.05;9.98;;;15.40;99.90;;;;;;4998946;28;20398;-82
2022/09/24 02:07:34;;;;;;;20.17;9.75;;;15.40;99.90;;;;;;4990301;28;20046;-82
2022/09/24 02:10:01;;;;;;;15.35;10.52;;;15.30;99.90;;;;;;4990688;28;20046;-82
2022/09/24 02:12:31;;;;;;;17.25;9.98;;;15.30;99.90;;;;;;4990469;28;20407;-82
2022/09/24 02:15:01;;;;;;;22.67;10.57;;;15.30;99.90;;;;;;5000462;28;20038;-82
2022/09/24 02:17:32;;;;;;;19.83;10.95;;;15.30;99.90;;;;;;4999325;28;20053;-81
2022/09/24 02:20:01;;;;;;;17.80;11.23;;;15.30;99.90;;;;;;4989864;28;20101;-82
2022/09/24 02:22:29;;;;;;;15.57;10.57;;;15.30;99.90;;;;;;4972034;28;20061;-82
2022/09/24 02:24:58;;;;;;;21.75;12.02;;;15.30;99.90;;;;;;4996096;28;20038;-82
2022/09/24 02:27:27;;;;;;;18.48;11.10;;;15.40;99.90;;;;;;4978394;28;20054;-82
2022/09/24 02:29:54;;;;;;;16.30;10.10;;;15.40;99.90;;;;;;4989443;28;20077;-82
2022/09/24 02:32:22;;;;;;;19.48;11.85;;;15.30;99.90;;;;;;4989669;28;20070;-82
2022/09/24 02:34:52;;;;;;;20.80;12.35;;;15.30;99.90;;;;;;4995385;28;20042;-82
2022/09/24 02:37:22;;;;;;;19.88;12.30;;;15.30;99.90;;;;;;4997172;28;20038;-82
2022/09/24 02:39:49;;;;;;;17.30;12.73;;;15.40;99.90;;;;;;4996102;28;20046;-82
2022/09/24 02:42:18;;;;;;;21.88;12.77;;;15.30;99.90;;;;;;4980523;28;20061;-82
2022/09/24 05:00:42;;;;;;;17.30;10.68;;;14.90;99.90;;;;;;5043406;28;20041;-94
2022/09/24 05:03:12;;;;;;;20.80;11.25;;;14.90;99.90;;;;;;5024106;28;20277;-85
2022/09/24 05:05:39;;;;;;;19.02;10.95;;;15.00;99.90;;;;;;5049369;28;20040;-90
2022/09/24 05:08:06;;;;;;;17.48;10.77;;;14.90;99.90;;;;;;5049407;28;20095;-92
2022/09/24 05:10:33;;;;;;;17.55;11.18;;;14.90;99.90;;;;;;5043379;28;20055;-88
2022/09/24 05:13:00;;;;;;;16.13;10.25;;;14.90;99.90;;;;;;5038595;28;20045;-83
2022/09/24 05:15:27;;;;;;;22.33;10.77;;;14.90;99.90;;;;;;5031966;28;20049;-83
2022/09/24 05:17:56;;;;;;;16.35;10.93;;;14.90;99.90;;;;;;5030214;28;20533;-83
2022/09/24 05:20:23;;;;;;;15.98;10.88;;;14.90;99.90;;;;;;5038620;28;20140;-84
2022/09/24 05:22:50;;;;;;;17.55;10.98;;;14.90;99.90;;;;;;5034373;28;20496;-83
2022/09/24 05:25:18;;;;;;;19.33;11.60;;;14.90;99.90;;;;;;5035353;28;20052;-85
2022/09/24 05:27:45;;;;;;;17.30;12.25;;;15.00;99.90;;;;;;5030366;28;20052;-87
2022/09/24 05:30:16;;;;;;;26.45;12.25;;;14.90;99.90;;;;;;5038341;28;20107;-85
2022/09/24 05:32:53;;;;;;;;;;;;;;;;;;;;;
2022/09/24 05:35:39;;;;;;;19.80;12.45;;;14.90;99.90;;;;;;5050715;28;20041;-90
2022/09/24 05:38:17;;;;;;;18.15;11.82;;;14.90;99.90;;;;;;5050898;28;20140;-92
2022/09/24 05:40:49;;;;;;;22.70;12.23;;;14.90;99.90;;;;;;5042637;28;20064;-87
2022/09/24 05:43:18;;;;;;;17.67;11.52;;;14.90;99.90;;;;;;5047631;28;20135;-89
2022/09/24 05:45:45;;;;;;;20.77;12.30;;;14.90;99.90;;;;;;5048813;28;20049;-86
2022/09/24 05:48:12;;;;;;;20.80;11.85;;;14.90;99.90;;;;;;5049677;28;20056;-86
2022/09/24 05:50:41;;;;;;;21.23;12.85;;;14.90;99.90;;;;;;5042827;28;20065;-88
2022/09/24 05:53:10;;;;;;;21.27;13.23;;;14.90;99.90;;;;;;5039578;28;20795;-89
2022/09/24 05:55:37;;;;;;;17.65;11.93;;;14.90;99.90;;;;;;5042430;28;20044;-89
2022/09/24 05:58:05;;;;;;;17.38;12.32;;;14.90;99.90;;;;;;5037681;28;20041;-91
2022/09/24 06:00:32;;;;;;;22.35;12.57;;;14.90;99.90;;;;;;5036931;28;20128;-90
2022/09/24 06:03:07;;;;;;;19.33;11.88;;;14.90;99.90;;;;;;5036113;28;20037;-89
2022/09/24 06:05:35;;;;;;;19.05;12.48;;;14.90;99.90;;;;;;5028685;28;20069;-89
2022/09/24 06:08:03;;;;;;;16.73;11.45;;;14.90;99.90;;;;;;5029423;28;20045;-90
2022/09/24 06:10:30;;;;;;;19.63;12.57;;;14.90;99.90;;;;;;5041489;28;20122;-91
2022/09/24 06:12:57;;;;;;;18.52;11.60;;;14.90;99.90;;;;;;5041810;28;20051;-90
2022/09/24 06:15:25;;;;;;;17.08;11.45;;;14.90;99.90;;;;;;5036604;28;20100;-90
2022/09/24 06:17:53;;;;;;;19.42;12.40;;;14.90;99.90;;;;;;5035457;28;20049;-89
2022/09/24 06:20:20;;;;;;;19.33;12.02;;;14.90;99.90;;;;;;5035603;28;20838;-89
2022/09/24 06:22:47;;;;;;;23.70;12.43;;;15.00;99.90;;;;;;5035896;28;20087;-90
2022/09/24 06:25:16;;;;;;;18.83;11.90;;;15.00;99.90;;;;;;5028399;28;20042;-89
2022/09/24 06:27:43;;;;;;;17.60;12.10;;;15.00;99.90;;;;;;5032436;28;20041;-89
2022/09/24 06:30:11;;;;;;;25.10;13.18;;;15.00;99.90;;;;;;5038133;28;20049;-89
2022/09/24 06:32:38;;;;;;;22.08;12.73;;;15.00;99.90;;;;;;5037358;28;20037;-90
2022/09/24 06:35:06;;;;;;;21.23;12.95;;;15.00;99.90;;;;;;5028391;28;20536;-90
2022/09/24 06:37:33;;;;;;;21.13;13.00;;;15.00;99.90;;;;;;5028945;28;20099;-87
2022/09/24 06:40:00;;;;;;;21.33;13.10;;;15.10;99.90;;;;;;5035550;28;20576;-85
2022/09/24 06:42:29;;;;;;;17.83;12.05;;;15.10;99.90;;;;;;5035734;28;20096;-88
2022/09/24 06:44:56;;;;;;;20.75;12.27;;;15.10;99.90;;;;;;5028172;28;20072;-85
2022/09/24 06:47:23;;;;;;;20.65;11.80;;;15.10;99.90;;;;;;5028991;28;20045;-86
2022/09/24 06:49:50;;;;;;;25.77;13.45;;;15.10;99.90;;;;;;5033302;28;20049;-86
2022/09/24 06:52:17;;;;;;;22.75;13.13;;;15.20;99.90;;;;;;5037523;28;20071;-86
2022/09/24 06:54:44;;;;;;;17.98;12.68;;;15.20;99.90;;;;;;5028064;28;20053;-86
2022/09/24 06:57:11;;;;;;;21.38;14.07;;;15.20;99.90;;;;;;5034964;28;20049;-85
2022/09/24 06:59:40;;;;;;;25.42;17.00;;;15.20;99.90;;;;;;5038075;28;20049;-86
2022/09/24 07:02:08;;;;;;;30.80;17.92;;;15.30;99.90;;;;;;5038747;28;20048;-86
2022/09/24 07:04:35;;;;;;;28.98;17.48;;;15.30;99.90;;;;;;5027853;28;20807;-86
2022/09/24 07:09:49;;;;;;;29.73;17.63;;;15.30;99.90;;;;;;5041052;28;20041;-84
2022/09/24 07:12:16;;;;;;;27.65;17.95;;;15.40;99.90;;;;;;5033920;28;20509;-81
2022/09/24 07:14:44;;;;;;;29.35;16.58;;;15.40;99.90;;;;;;5043230;28;20063;-84
2022/09/24 07:17:11;;;;;;;30.35;17.33;;;15.40;99.90;;;;;;5047372;28;20486;-86
2022/09/24 07:19:38;;;;;;;27.92;16.88;;;15.40;99.90;;;;;;5047842;28;20044;-88
2022/09/24 07:22:05;;;;;;;27.88;17.05;;;15.40;99.90;;;;;;5038697;28;20087;-83
2022/09/24 07:24:32;;;;;;;27.48;16.15;;;15.50;99.90;;;;;;5036371;28;20060;-86
2022/09/24 07:26:59;;;;;;;37.72;16.52;;;15.50;99.90;;;;;;5036765;28;20068;-85
2022/09/24 07:29:26;;;;;;;30.55;17.15;;;15.60;99.90;;;;;;5042145;28;20053;-87
2022/09/24 07:31:54;;;;;;;30.55;17.60;;;15.70;99.90;;;;;;5038295;28;20543;-86
2022/09/24 07:34:21;;;;;;;29.90;16.95;;;15.60;99.90;;;;;;5027933;28;20052;-86
2022/09/24 07:36:48;;;;;;;30.55;17.83;;;15.70;99.90;;;;;;5034629;28;19925;-87
2022/09/24 07:39:15;;;;;;;28.83;16.42;;;15.60;99.90;;;;;;5048336;28;20404;-86
2022/09/24 07:41:45;;;;;;;27.45;15.85;;;15.70;99.90;;;;;;5039071;28;20041;-86
2022/09/24 07:44:12;;;;;;;24.83;14.50;;;15.70;99.90;;;;;;5029532;28;20073;-88
2022/09/24 07:46:39;;;;;;;24.88;15.30;;;15.70;99.90;;;;;;5031707;28;20044;-90
2022/09/24 07:49:07;;;;;;;28.98;15.90;;;15.70;99.90;;;;;;5047828;28;20041;-88
2022/09/24 07:51:35;;;;;;;28.10;15.55;;;15.70;99.90;;;;;;5042790;28;20045;-87
2022/09/24 07:54:02;;;;;;;24.30;14.88;;;15.70;99.90;;;;;;5032849;28;20064;-88
2022/09/24 07:56:29;;;;;;;24.83;14.73;;;15.70;99.90;;;;;;5038435;28;20116;-89
2022/09/24 07:58:55;;;;;;;22.65;14.55;;;15.80;99.90;;;;;;5043513;28;20079;-87
2022/09/24 08:01:23;;;;;;;27.48;16.13;;;15.70;99.90;;;;;;5039348;28;20063;-88
2022/09/24 08:03:51;;;;;;;25.08;16.02;;;15.80;99.90;;;;;;5040349;28;20056;-87
2022/09/24 08:06:20;;;;;;;25.17;16.27;;;15.80;99.90;;;;;;5035266;28;20040;-87
2022/09/24 08:08:49;;;;;;;29.58;15.77;;;15.80;99.90;;;;;;5042519;28;20049;-87
2022/09/24 08:11:16;;;;;;;23.92;14.25;;;15.80;99.90;;;;;;5043412;28;20552;-88
2022/09/24 08:13:43;;;;;;;22.38;14.48;;;15.90;99.90;;;;;;5036997;28;20118;-83
2022/09/24 08:16:11;;;;;;;23.17;14.60;;;15.90;99.90;;;;;;5040450;28;20037;-88
2022/09/24 08:18:38;;;;;;;22.80;13.77;;;16.00;99.90;;;;;;5045143;28;20057;-89
2022/09/24 08:21:08;;;;;;;23.92;14.18;;;16.00;99.90;;;;;;5048133;28;20053;-88
2022/09/24 08:23:36;;;;;;;20.83;13.40;;;16.00;99.90;;;;;;5035632;28;20041;-89
2022/09/24 08:26:04;;;;;;;25.25;14.45;;;16.00;99.90;;;;;;5037838;28;20117;-88
2022/09/24 08:28:31;;;;;;;24.25;14.73;;;16.10;99.90;;;;;;5041342;28;20064;-88
2022/09/24 08:30:59;;;;;;;23.90;15.00;;;16.10;99.90;;;;;;5038402;28;20055;-88
2022/09/24 08:33:26;;;;;;;22.88;14.18;;;16.20;99.90;;;;;;5042921;28;20118;-89
2022/09/24 08:35:53;;;;;;;25.67;15.23;;;16.20;99.90;;;;;;5038542;28;20045;-88
2022/09/24 08:38:20;;;;;;;22.52;13.77;;;16.30;99.90;;;;;;5034294;28;20045;-88
2022/09/24 08:40:54;;;;;;;23.70;14.07;;;16.20;99.90;;;;;;5040856;28;20060;-88
2022/09/24 08:48:46;;;;;;;21.42;13.73;;;16.40;99.90;;;;;;5008254;28;20121;-81
2022/09/24 08:51:16;;;;;;;23.90;13.65;;;16.40;99.90;;;;;;5008211;28;20050;-81
2022/09/24 08:53:48;;;;;;;23.65;13.50;;;16.40;99.90;;;;;;5011704;28;20092;-82
2022/09/24 08:56:21;;;;;;;17.27;12.02;;;16.50;99.90;;;;;;5019381;28;20050;-85
2022/09/24 08:58:52;;;;;;;21.90;12.25;;;16.50;99.90;;;;;;5028901;28;20050;-85
2022/09/24 09:01:28;;;;;;;19.90;11.93;;;16.50;99.90;;;;;;5022076;28;20068;-85
2022/09/24 09:03:58;;;;;;;18.98;11.20;;;16.50;99.90;;;;;;5024911;28;20064;-84
2022/09/24 09:06:40;;;;;;;16.60;11.45;;;16.60;99.90;;;;;;5023531;28;20037;-87
2022/09/24 09:09:12;;;;;;;17.85;12.00;;;16.60;99.90;;;;;;5024439;28;20046;-86
2022/09/24 09:11:41;;;;;;;19.65;12.27;;;16.70;99.90;;;;;;5023848;28;20045;-87
2022/09/24 09:14:12;;;;;;;19.80;11.88;;;16.70;99.90;;;;;;5022613;28;20132;-89
2022/09/24 09:16:44;;;;;;;19.10;11.63;;;16.70;99.90;;;;;;5022003;28;20049;-83
2022/09/24 09:19:14;;;;;;;20.73;11.65;;;16.80;99.90;;;;;;5026854;28;20052;-86
2022/09/24 09:21:43;;;;;;;17.27;11.63;;;16.70;99.90;;;;;;5018766;28;20052;-85
2022/09/24 09:24:17;;;;;;;17.90;11.43;;;16.80;99.90;;;;;;5015351;28;20434;-84
2022/09/24 09:26:48;;;;;;;18.90;12.32;;;16.80;99.90;;;;;;5018691;28;20068;-85
2022/09/24 09:29:14;;;;;;;19.60;12.13;;;16.80;99.90;;;;;;5021286;28;20069;-85
2022/09/24 09:31:50;;;;;;;19.90;12.38;;;16.90;99.90;;;;;;5019522;28;20049;-86
2022/09/24 09:34:28;;;;;;;19.85;12.65;;;16.90;99.90;;;;;;5018438;28;20038;-86
2022/09/24 09:37:08;;;;;;;18.40;11.68;;;17.00;99.90;;;;;;5019420;28;20041;-84
2022/09/24 09:39:42;;;;;;;16.80;11.00;;;16.90;99.90;;;;;;5018331;28;20041;-81
2022/09/24 09:42:21;;;;;;;17.88;10.60;;;17.00;99.90;;;;;;5018039;28;20049;-85
2022/09/24 09:44:49;;;;;;;18.42;11.18;;;17.00;99.90;;;;;;5018329;28;20080;-85
2022/09/24 09:47:21;;;;;;;18.00;11.15;;;17.00;99.90;;;;;;5017601;28;20033;-84
2022/09/24 09:49:52;;;;;;;16.90;11.07;;;17.00;99.90;;;;;;5020351;28;20053;-85
2022/09/24 09:52:21;;;;;;;13.00;9.30;;;17.10;99.90;;;;;;5018951;28;20045;-85
2022/09/24 09:54:48;;;;;;;17.95;11.23;;;17.10;99.90;;;;;;5014507;28;20482;-84
2022/09/24 09:57:19;;;;;;;19.13;11.52;;;17.10;99.90;;;;;;5017774;28;20053;-84
2022/09/24 09:59:50;;;;;;;17.60;11.30;;;17.20;99.90;;;;;;5017994;28;20045;-84
2022/09/24 10:02:24;;;;;;;19.98;11.95;;;17.20;99.90;;;;;;5018288;28;20049;-86
2022/09/24 10:04:53;;;;;;;25.45;11.55;;;17.20;99.90;;;;;;5015826;28;20494;-86
2022/09/24 10:07:20;;;;;;;16.70;10.40;;;17.20;99.90;;;;;;5019817;28;20056;-86
2022/09/24 10:09:59;;;;;;;19.63;11.05;;;17.30;99.90;;;;;;5017564;28;20503;-86
2022/09/24 10:12:27;;;;;;;14.57;10.18;;;17.30;99.90;;;;;;5016628;28;20498;-82
2022/09/24 10:14:59;;;;;;;17.95;10.68;;;17.30;99.90;;;;;;5016583;28;20562;-82
2022/09/24 10:17:30;;;;;;;14.93;9.82;;;17.30;99.90;;;;;;5017797;28;20033;-85
2022/09/24 10:19:57;;;;;;;;;;;17.30;99.90;;;;;;5018752;28;20072;-83
2022/09/24 10:22:26;;;;;;;13.48;8.50;;;17.40;99.90;;;;;;5017616;28;19932;-83
2022/09/24 10:24:55;;;;;;;14.23;8.88;;;17.40;99.90;;;;;;5016271;28;20068;-84
2022/09/24 10:27:31;;;;;;;11.38;7.95;;;17.40;99.90;;;;;;5018310;28;20498;-83
2022/09/24 10:32:43;;;;;;;14.25;9.05;;;17.40;99.90;;;;;;5017807;28;20178;-82
2022/09/24 10:35:22;;;;;;;14.18;7.93;;;17.40;99.90;;;;;;5017229;28;20383;-82
2022/09/24 10:37:53;;;;;;;14.02;8.35;;;17.50;99.90;;;;;;5016080;28;20041;-81
2022/09/24 10:40:26;;;;;;;11.93;7.68;;;17.50;99.90;;;;;;5017502;28;20041;-88
2022/09/24 10:42:59;;;;;;;12.35;7.68;;;17.50;99.90;;;;;;5017582;28;20060;-81
2022/09/24 10:45:54;;;;;;;12.27;8.52;;;17.50;99.90;;;;;;5000847;28;20399;-84
2022/09/24 10:48:23;;;;;;;13.30;7.97;;;17.60;99.90;;;;;;5006062;28;20045;-79
2022/09/24 10:50:57;;;;;;;13.68;8.30;;;17.60;99.90;;;;;;5018139;28;20050;-80
2022/09/24 10:53:33;;;;;;;12.85;7.47;;;17.60;99.90;;;;;;5017291;28;20053;-80
2022/09/24 10:56:05;;;;;;;14.75;8.35;;;17.60;99.90;;;;;;5000397;28;20441;-81
2022/09/24 10:58:50;;;;;;;13.57;8.93;;;17.70;99.90;;;;;;5018752;28;20490;-80
2022/09/24 11:01:21;;;;;;;12.27;8.88;;;17.70;99.90;;;;;;5017700;28;20067;-80
2022/09/24 11:03:56;;;;;;;12.40;8.13;;;17.70;99.90;;;;;;5015980;28;20129;-80
2022/09/24 11:06:35;;;;;;;14.60;9.27;;;17.70;99.90;;;;;;5017179;28;20042;-80
2022/09/24 11:09:11;;;;;;;21.13;10.38;;;17.70;99.90;;;;;;4999352;28;20060;-81
2022/09/24 11:11:47;;;;;;;14.50;9.52;;;17.70;99.90;;;;;;5016958;28;20131;-81
2022/09/24 11:14:28;;;;;;;14.23;8.98;;;17.80;99.90;;;;;;5015555;28;20041;-81
2022/09/24 11:17:08;;;;;;;13.10;8.95;;;17.80;99.90;;;;;;5017124;28;20103;-82
2022/09/24 11:19:54;;;;;;;12.50;8.70;;;17.80;99.90;;;;;;5019913;28;20565;-81
2022/09/24 11:22:28;;;;;;;16.23;9.75;;;17.80;99.90;;;;;;5018357;28;20049;-81
2022/09/24 11:25:16;;;;;;;14.82;10.50;;;17.80;99.90;;;;;;5020220;28;20045;-81
2022/09/24 11:27:56;;;;;;;15.57;10.88;;;17.80;99.90;;;;;;5013375;28;20064;-81
2022/09/24 11:30:28;;;;;;;15.38;10.38;;;17.80;99.90;;;;;;5024733;28;20050;-81
2022/09/24 11:33:03;;;;;;;17.10;11.50;;;17.80;99.90;;;;;;5030169;28;20061;-81
2022/09/24 11:35:42;;;;;;;14.38;10.60;;;17.90;99.90;;;;;;5021677;28;20121;-81
2022/09/24 11:38:12;;;;;;;16.25;10.35;;;17.80;99.90;;;;;;5006065;28;20054;-81
2022/09/24 11:40:55;;;;;;;18.13;10.05;;;17.80;99.90;;;;;;5029610;28;20049;-81
2022/09/24 11:43:41;;;;;;;14.57;10.45;;;17.80;99.90;;;;;;5011890;28;20049;-83
2022/09/24 11:46:20;;;;;;;16.10;11.57;;;17.80;99.90;;;;;;5016878;28;20041;-80
2022/09/24 11:49:04;;;;;;;18.08;12.13;;;17.80;99.90;;;;;;5022291;28;20046;-80
2022/09/24 11:51:41;;;;;;;16.05;11.60;;;17.80;99.90;;;;;;5021306;28;20493;-79
2022/09/24 11:54:15;;;;;;;18.10;12.63;;;17.80;99.90;;;;;;5020776;28;20757;-80
2022/09/24 11:56:46;;;;;;;18.17;11.70;;;17.70;99.90;;;;;;5020400;28;20605;-79
2022/09/24 11:59:17;;;;;;;17.75;12.20;;;17.70;99.90;;;;;;5021156;28;20505;-80
2022/09/24 12:01:48;;;;;;;18.33;12.55;;;17.70;99.90;;;;;;5021831;28;20038;-80
2022/09/24 12:04:18;;;;;;;19.15;12.40;;;17.70;99.90;;;;;;5019631;28;20046;-78
2022/09/24 12:06:53;;;;;;;19.30;11.80;;;17.70;99.90;;;;;;5021118;28;20100;-79
2022/09/24 12:09:22;;;;;;;20.67;12.75;;;17.70;99.90;;;;;;5022578;28;20049;-79
2022/09/24 12:11:53;;;;;;;18.80;12.45;;;17.70;99.90;;;;;;5024291;28;20045;-78
2022/09/24 12:14:23;;;;;;;17.92;11.38;;;17.70;99.90;;;;;;5017273;28;20045;-79
2022/09/24 12:16:54;;;;;;;17.70;11.27;;;17.70;99.90;;;;;;5020244;28;20104;-78
2022/09/24 12:19:23;;;;;;;16.40;10.52;;;17.80;99.90;;;;;;5020860;28;20056;-78
2022/09/24 12:21:52;;;;;;;15.82;10.10;;;17.80;99.90;;;;;;5020890;28;20049;-78
2022/09/24 12:24:29;;;;;;;15.00;9.50;;;17.80;99.90;;;;;;5019851;28;20045;-78
2022/09/24 12:26:58;;;;;;;14.90;8.60;;;17.80;99.90;;;;;;5020942;28;20042;-78
2022/09/24 12:35:18;;;;;;;12.00;7.97;;;17.80;99.90;;;;;;5018940;28;20042;-78
2022/09/24 12:37:46;;;;;;;13.40;7.65;;;17.80;99.90;;;;;;5020863;28;20559;-78
2022/09/24 12:40:27;;;;;;;13.27;7.28;;;17.70;99.90;;;;;;5019842;28;20447;-78
2022/09/24 12:42:56;;;;;;;11.23;6.65;;;17.70;99.90;;;;;;5020411;28;20050;-79
2022/09/24 12:45:25;;;;;;;12.13;6.75;;;17.70;99.90;;;;;;5020737;28;20148;-79
2022/09/24 12:47:55;;;;;;;10.07;6.25;;;17.70;99.90;;;;;;5023441;28;20052;-79
2022/09/24 12:50:26;;;;;;;13.48;6.93;;;17.80;99.90;;;;;;5022177;28;20052;-79
2022/09/24 12:52:54;;;;;;;9.68;6.40;;;17.80;99.90;;;;;;5017572;28;20100;-81
2022/09/24 12:55:23;;;;;;;9.98;6.80;;;17.80;99.90;;;;;;5019783;28;20616;-79
2022/09/24 12:57:51;;;;;;;11.88;6.97;;;17.80;99.90;;;;;;5019509;28;20041;-81
2022/09/24 13:00:37;;;;;;;10.98;6.97;;;17.80;99.90;;;;;;5021056;28;20046;-80
2022/09/24 13:03:06;;;;;;;14.25;6.72;;;17.80;99.90;;;;;;5019552;28;20053;-77
2022/09/24 13:05:35;;;;;;;14.30;6.78;;;17.80;99.90;;;;;;5025852;28;20399;-78
2022/09/24 13:08:03;;;;;;;10.25;6.90;;;17.80;99.90;;;;;;5021246;28;20536;-79
2022/09/24 13:10:31;;;;;;;9.13;6.30;;;17.80;99.90;;;;;;5022520;28;20577;-78
2022/09/24 13:12:59;;;;;;;11.20;6.78;;;17.80;99.90;;;;;;5021969;28;20421;-78
2022/09/24 13:15:34;;;;;;;10.23;6.45;;;17.80;99.90;;;;;;5019739;28;20046;-79
2022/09/24 13:18:20;;;;;;;10.75;6.63;;;17.80;99.90;;;;;;5019374;28;20038;-79
2022/09/24 13:20:59;;;;;;;15.20;7.68;;;17.80;99.90;;;;;;5013836;28;20112;-79
2022/09/24 13:23:44;;;;;;;11.85;8.27;;;17.80;99.90;;;;;;5019197;28;20049;-80
2022/09/24 13:26:14;;;;;;;12.80;7.85;;;17.80;99.90;;;;;;5021027;28;20045;-80
2022/09/24 13:28:54;;;;;;;11.00;7.65;;;17.80;99.90;;;;;;5025339;28;20399;-79
2022/09/24 13:31:27;;;;;;;13.63;9.23;;;17.80;99.90;;;;;;5021804;28;20087;-80
2022/09/24 13:33:58;;;;;;;12.32;7.90;;;17.80;99.90;;;;;;5024746;28;20049;-79
2022/09/24 13:36:30;;;;;;;14.82;8.23;;;17.80;99.90;;;;;;5027447;28;20045;-79
2022/09/24 13:39:03;;;;;;;12.95;8.50;;;17.90;99.90;;;;;;5019559;28;20498;-79
2022/09/24 13:41:42;;;;;;;17.27;9.82;;;17.90;99.90;;;;;;5016292;28;20050;-79
2022/09/24 13:44:16;;;;;;;15.90;9.15;;;17.80;99.90;;;;;;5019566;28;20041;-79
2022/09/24 13:46:45;;;;;;;15.90;9.80;;;17.80;99.90;;;;;;5027209;28;20037;-78
2022/09/24 13:49:17;;;;;;;14.20;9.23;;;17.80;99.90;;;;;;5022793;28;20084;-79
2022/09/24 13:51:46;;;;;;;15.45;9.57;;;17.80;99.90;;;;;;5024716;28;20506;-79
2022/09/24 13:54:16;;;;;;;16.52;9.52;;;17.80;99.90;;;;;;5026241;28;20088;-79
2022/09/24 13:56:57;;;;;;;14.32;9.25;;;17.80;99.90;;;;;;5019144;28;20056;-79
2022/09/24 13:59:24;;;;;;;16.50;8.70;;;17.80;99.90;;;;;;5022072;28;20045;-79
2022/09/24 14:01:51;;;;;;;15.85;9.63;;;17.80;99.90;;;;;;5011056;28;20045;-79
2022/09/24 14:04:21;;;;;;;13.40;9.48;;;17.80;99.90;;;;;;5022005;28;20124;-79
2022/09/24 14:06:50;;;;;;;13.50;9.50;;;17.80;99.90;;;;;;5006611;28;20037;-78
2022/09/24 14:09:29;;;;;;;12.00;8.43;;;17.80;99.90;;;;;;5021257;28;20103;-78
2022/09/24 14:11:57;;;;;;;13.32;8.55;;;17.80;99.90;;;;;;5029338;28;20045;-80
2022/09/24 14:14:26;;;;;;;15.25;9.55;;;17.80;99.90;;;;;;5026112;28;20099;-81
2022/09/24 14:16:54;;;;;;;16.48;10.88;;;17.80;99.90;;;;;;5018753;28;20050;-81
2022/09/24 14:19:23;;;;;;;16.48;11.40;;;17.80;99.90;;;;;;5026551;28;20064;-80
2022/09/24 14:21:51;;;;;;;18.05;10.48;;;17.80;99.90;;;;;;5028148;28;20135;-81
2022/09/24 14:24:20;;;;;;;15.13;10.40;;;17.80;99.90;;;;;;5017491;28;20497;-81
2022/09/24 14:26:50;;;;;;;15.82;10.52;;;17.80;99.90;;;;;;5020102;28;20050;-81
2022/09/24 14:29:19;;;;;;;15.93;10.75;;;17.80;99.90;;;;;;5027986;28;20118;-81
2022/09/24 14:31:48;;;;;;;16.73;11.77;;;17.80;99.90;;;;;;5027982;28;20446;-81
2022/09/24 14:34:26;;;;;;;16.33;11.02;;;17.80;99.90;;;;;;5020861;28;20127;-82
2022/09/24 14:36:54;;;;;;;19.13;11.98;;;17.80;99.90;;;;;;5027438;28;20055;-84
2022/09/24 14:39:24;;;;;;;18.00;11.52;;;17.80;99.90;;;;;;5017569;28;20034;-86
2022/09/24 14:41:51;;;;;;;21.42;12.02;;;17.80;99.90;;;;;;5025424;28;20050;-84
2022/09/24 14:44:22;;;;;;;93.75;32.28;;;17.80;99.90;;;;;;5038542;22;20724;-84
2022/09/24 14:46:51;;;;;;;70.63;29.67;;;17.80;99.90;;;;;;5028068;28;20051;-84
2022/09/24 14:49:20;;;;;;;93.45;33.85;;;17.80;99.90;;;;;;5028409;28;20042;-84
2022/09/24 14:51:56;;;;;;;47.35;20.52;;;17.80;99.90;;;;;;5028464;28;20092;-84
2022/09/24 14:54:33;;;;;;;69.97;29.45;;;17.80;99.90;;;;;;5036065;28;20055;-83
2022/09/24 14:57:11;;;;;;;67.93;28.08;;;17.80;99.90;;;;;;5032020;28;20056;-82
2022/09/24 14:59:40;;;;;;;39.53;19.70;;;17.90;99.90;;;;;;5024061;28;20041;-83
2022/09/24 15:02:16;;;;;;;112.80;27.67;;;17.70;99.90;;;;;;5039758;28;20041;-81
2022/09/24 15:04:45;;;;;;;25.25;13.60;;;17.80;99.90;;;;;;5032405;28;20128;-81
2022/09/24 15:07:17;;;;;;;24.10;13.70;;;17.70;99.90;;;;;;5034477;28;20045;-81
2022/09/24 15:09:49;;;;;;;20.63;12.77;;;17.70;99.90;;;;;;5034174;28;20045;-81
2022/09/24 15:12:20;;;;;;;16.92;12.07;;;17.70;99.90;;;;;;5014218;28;20574;-81
2022/09/24 15:14:54;;;;;;;18.35;11.80;;;17.70;99.90;;;;;;5030430;28;20060;-81
2022/09/24 15:17:23;;;;;;;19.02;12.80;;;17.70;99.90;;;;;;5031058;28;20061;-81
2022/09/24 15:19:53;;;;;;;18.23;12.35;;;17.60;99.90;;;;;;5031277;28;20045;-78
2022/09/24 15:22:22;;;;;;;17.23;12.00;;;17.60;99.90;;;;;;5032387;28;20498;-79
2022/09/24 15:24:49;;;;;;;17.52;12.05;;;17.60;99.90;;;;;;5028498;28;20041;-85
2022/09/24 15:27:19;;;;;;;17.83;12.23;;;17.60;99.90;;;;;;5031121;28;20053;-76